Terminal Aerodrome Forecast
Issued by NWS New Orleans/Baton Rouge, LA

Home | Current Version | Previous Version | Text Only | Print | Product List | Glossary On
Versions: 1 2 3 4 5 6 7 8 9 10 11 12 13 14 15 16 17
000
FTUS44 KLIX 171320 AAA
TAFNEW
TAF AMD
KNEW 171320Z 1713/1812 16006KT 3SM BR BKN005
      TEMPO 1713/1715 1SM BR
     FM171530 17006KT P6SM BKN020
     FM171700 18007KT P6SM BKN045
     FM180000 17006KT P6SM SCT090
     FM180500 15005KT 4SM BR SCT003
     FM180700 14005KT 2SM BR BKN003
      TEMPO 1808/1812 3/4SM BR=

USA.gov is the U.S. government's official web portal to all federal, state and local government web resources and services.